createdAt,value
2023-02-01T00:00:31.780Z,6.50
2023-02-01T00:02:58.531Z,7.70
2023-02-01T00:05:25.397Z,5.68
2023-02-01T00:07:52.119Z,6.43
2023-02-01T00:10:19.246Z,5.97
2023-02-01T00:12:46.068Z,7.15
2023-02-01T00:15:12.898Z,5.13
2023-02-01T00:17:39.730Z,6.05
2023-02-01T00:20:07.072Z,6.65
2023-02-01T00:22:33.880Z,5.47
2023-02-01T00:25:00.624Z,5.82
2023-02-01T00:27:27.447Z,3.17
2023-02-01T00:29:56.382Z,4.43
2023-02-01T00:32:23.235Z,4.05
2023-02-01T00:34:49.924Z,3.38
2023-02-01T00:37:16.684Z,4.80
2023-02-01T00:39:43.389Z,4.50
2023-02-01T00:42:10.938Z,4.75
2023-02-01T00:44:37.630Z,4.88
2023-02-01T00:47:04.352Z,3.78
2023-02-01T00:49:31.087Z,5.78
2023-02-01T00:51:57.963Z,4.72
2023-02-01T00:54:24.758Z,4.45
2023-02-01T00:56:51.483Z,4.07
2023-02-01T00:59:18.188Z,6.13
2023-02-01T01:01:44.920Z,3.83
2023-02-01T01:04:11.723Z,4.03
2023-02-01T01:06:38.487Z,4.75
2023-02-01T01:09:07.938Z,3.97
2023-02-01T01:11:37.452Z,4.82
2023-02-01T01:14:06.601Z,5.97
2023-02-01T01:16:33.895Z,4.75
2023-02-01T01:19:01.238Z,4.15
2023-02-01T01:21:28.124Z,7.07
2023-02-01T01:23:55.199Z,5.03
2023-02-01T01:26:24.687Z,5.25
2023-02-01T01:28:52.086Z,3.63
2023-02-01T01:31:20.419Z,3.95
2023-02-01T01:33:52.420Z,4.88
2023-02-01T01:36:19.786Z,4.57
2023-02-01T01:38:46.912Z,3.85
2023-02-01T01:41:16.642Z,4.25
2023-02-01T01:43:52.216Z,4.72
2023-02-01T01:46:30.895Z,3.85
2023-02-01T01:49:11.656Z,5.82
2023-02-01T01:51:52.481Z,4.25
2023-02-01T01:54:25.438Z,3.05
2023-02-01T01:56:55.199Z,2.65
2023-02-01T01:59:23.423Z,2.70
2023-02-01T02:01:50.330Z,2.40
2023-02-01T02:04:17.322Z,2.60
2023-02-01T02:06:49.116Z,2.75
2023-02-01T02:09:16.467Z,3.92
2023-02-01T02:11:43.358Z,2.38
2023-02-01T02:14:13.241Z,3.72
2023-02-01T02:16:47.350Z,5.10
2023-02-01T02:19:45.116Z,3.25
2023-02-01T02:22:30.387Z,4.55
2023-02-01T02:25:00.095Z,3.50
2023-02-01T02:28:06.246Z,2.35
2023-02-01T02:30:57.965Z,2.88
2023-02-01T02:33:44.380Z,2.97
2023-02-01T02:36:39.857Z,3.17
2023-02-01T02:42:30.672Z,2.28
2023-02-01T02:45:33.297Z,2.88
2023-02-01T02:48:10.134Z,2.95
2023-02-01T02:50:58.739Z,3.50
2023-02-01T02:53:49.090Z,5.18
2023-02-01T02:56:35.567Z,3.47
2023-02-01T02:59:21.838Z,3.00
2023-02-01T03:02:08.836Z,3.95
2023-02-01T03:04:35.523Z,2.20
2023-02-01T03:07:35.762Z,3.53
2023-02-01T03:10:09.834Z,2.97
2023-02-01T03:12:56.999Z,2.50
2023-02-01T03:16:02.028Z,3.67
2023-02-01T03:18:34.667Z,3.40
2023-02-01T03:21:05.465Z,2.25
2023-02-01T03:23:35.146Z,1.98
2023-02-01T03:26:03.114Z,2.70
2023-02-01T03:28:31.096Z,4.55
2023-02-01T03:30:58.202Z,2.10
2023-02-01T03:33:26.484Z,2.47
2023-02-01T03:36:13.367Z,3.97
2023-02-01T03:38:50.682Z,4.10
2023-02-01T03:41:37.122Z,2.88
2023-02-01T03:44:24.258Z,4.10
2023-02-01T03:47:10.584Z,2.22
2023-02-01T03:49:43.126Z,3.10
2023-02-01T03:52:14.832Z,4.03
2023-02-01T03:54:41.967Z,2.80
2023-02-01T03:57:13.073Z,2.35
2023-02-01T03:59:41.937Z,4.07
2023-02-01T04:02:09.410Z,4.25
2023-02-01T04:04:36.248Z,1.92
2023-02-01T04:07:03.375Z,2.10
2023-02-01T04:09:30.256Z,3.30
2023-02-01T04:11:57.056Z,2.10
2023-02-01T04:14:23.767Z,2.15
2023-02-01T04:16:50.562Z,2.58
2023-02-01T04:19:17.230Z,3.25
2023-02-01T04:21:43.908Z,2.55
2023-02-01T04:24:11.632Z,1.83
2023-02-01T04:26:38.520Z,4.65
2023-02-01T04:29:05.299Z,4.72
2023-02-01T04:31:32.247Z,2.05
2023-02-01T04:33:59.010Z,4.40
2023-02-01T04:36:25.803Z,2.30
2023-02-01T04:38:52.956Z,4.60
2023-02-01T04:41:20.650Z,3.10
2023-02-01T04:43:50.885Z,3.03
2023-02-01T04:46:17.703Z,5.00
2023-02-01T04:48:44.515Z,7.22
2023-02-01T04:51:11.540Z,3.90
2023-02-01T04:53:38.395Z,3.22
2023-02-01T04:56:05.542Z,5.25
2023-02-01T04:58:32.283Z,3.63
2023-02-01T05:00:59.028Z,4.80
2023-02-01T05:03:25.748Z,8.95
2023-02-01T05:05:54.572Z,3.47
2023-02-01T05:08:23.448Z,4.53
2023-02-01T05:10:50.415Z,6.95
2023-02-01T05:13:35.891Z,5.88
2023-02-01T05:16:02.775Z,6.13
2023-02-01T05:18:29.622Z,7.13
2023-02-01T05:20:56.431Z,5.20
2023-02-01T05:23:23.169Z,6.18
2023-02-01T05:25:49.889Z,6.63
2023-02-01T05:28:16.661Z,4.68
2023-02-01T05:30:43.431Z,4.80
2023-02-01T05:33:10.178Z,7.32
2023-02-01T05:35:36.934Z,5.28
2023-02-01T05:38:03.605Z,5.28
2023-02-01T05:40:30.301Z,7.65
2023-02-01T05:42:57.014Z,6.03
2023-02-01T05:45:23.692Z,8.77
2023-02-01T05:47:50.357Z,6.88
2023-02-01T05:50:17.817Z,8.07
2023-02-01T05:52:44.714Z,11.90
2023-02-01T05:55:11.520Z,17.00
2023-02-01T05:57:38.184Z,11.15
2023-02-01T06:00:05.426Z,19.80
2023-02-01T06:02:32.177Z,16.63
2023-02-01T06:04:58.986Z,19.52
2023-02-01T06:07:27.135Z,15.45
2023-02-01T06:09:54.796Z,14.88
2023-02-01T06:12:21.467Z,17.60
2023-02-01T06:14:48.172Z,12.90
2023-02-01T06:17:14.879Z,15.88
2023-02-01T06:19:41.619Z,16.83
2023-02-01T06:22:08.346Z,14.80
2023-02-01T06:24:35.178Z,19.35
2023-02-01T06:27:01.944Z,14.40
2023-02-01T06:29:28.745Z,13.40
2023-02-01T06:31:55.681Z,13.48
2023-02-01T06:34:23.989Z,15.68
2023-02-01T06:36:50.995Z,12.88
2023-02-01T06:39:17.885Z,13.10
2023-02-01T06:41:50.244Z,14.23
2023-02-01T06:44:17.814Z,12.45
2023-02-01T06:46:44.591Z,13.25
2023-02-01T06:49:11.391Z,13.40
2023-02-01T06:51:38.150Z,12.10
2023-02-01T06:54:05.104Z,12.65
2023-02-01T06:56:32.431Z,13.90
2023-02-01T06:58:59.084Z,11.98
2023-02-01T07:01:26.043Z,11.48
2023-02-01T07:03:52.756Z,14.65
2023-02-01T07:06:19.923Z,13.82
2023-02-01T07:08:46.705Z,12.13
2023-02-01T07:11:15.114Z,15.75
2023-02-01T07:13:41.817Z,16.92
2023-02-01T07:16:12.425Z,13.50
2023-02-01T07:18:39.470Z,13.93
2023-02-01T07:21:06.512Z,16.67
2023-02-01T07:23:33.357Z,15.20
2023-02-01T07:26:03.116Z,17.08
2023-02-01T07:28:31.531Z,9.35
2023-02-01T07:31:05.980Z,11.13
2023-02-01T07:33:33.423Z,21.52
2023-02-01T07:36:02.793Z,13.95
2023-02-01T07:38:29.727Z,13.57
2023-02-01T07:41:05.394Z,13.27
2023-02-01T07:43:34.021Z,15.52
2023-02-01T07:46:00.912Z,16.35
2023-02-01T07:48:28.110Z,15.10
2023-02-01T07:51:03.603Z,12.32
2023-02-01T07:53:31.284Z,13.15
2023-02-01T07:55:58.474Z,14.75
2023-02-01T07:58:26.374Z,14.10
2023-02-01T08:01:11.813Z,16.48
2023-02-01T08:03:38.703Z,12.05
2023-02-01T08:06:06.023Z,13.15
2023-02-01T08:08:32.943Z,12.93
2023-02-01T08:11:01.296Z,14.63
2023-02-01T08:13:28.290Z,18.25
2023-02-01T08:16:02.493Z,14.27
2023-02-01T08:18:29.275Z,15.73
2023-02-01T08:20:56.336Z,15.98
2023-02-01T08:23:23.243Z,9.60
2023-02-01T08:25:50.030Z,19.13
2023-02-01T08:28:16.902Z,18.98
2023-02-01T08:30:43.742Z,16.10
2023-02-01T08:33:10.684Z,16.10
2023-02-01T08:35:43.731Z,14.70
2023-02-01T08:38:10.923Z,17.85
2023-02-01T08:40:37.633Z,11.55
2023-02-01T08:43:04.457Z,12.95
2023-02-01T08:45:31.320Z,10.65
2023-02-01T08:47:58.290Z,15.75
2023-02-01T08:50:26.672Z,18.67
2023-02-01T08:52:54.001Z,14.98
2023-02-01T08:55:20.985Z,13.30
2023-02-01T08:57:47.964Z,17.45
2023-02-01T09:00:17.250Z,18.42
2023-02-01T09:02:44.667Z,17.40
2023-02-01T09:05:11.961Z,11.90
2023-02-01T09:07:38.956Z,21.38
2023-02-01T09:10:06.288Z,11.23
2023-02-01T09:12:34.858Z,8.68
2023-02-01T09:15:01.835Z,21.55
2023-02-01T09:17:30.531Z,23.08
2023-02-01T09:19:57.584Z,11.35
2023-02-01T09:22:24.667Z,15.38
2023-02-01T09:24:52.444Z,15.88
2023-02-01T09:27:20.668Z,11.02
2023-02-01T09:29:53.167Z,10.05
2023-02-01T09:32:21.364Z,14.10
2023-02-01T09:34:48.324Z,16.30
2023-02-01T09:37:15.083Z,16.90
2023-02-01T09:39:43.670Z,20.52
2023-02-01T09:42:51.890Z,15.25
2023-02-01T09:45:42.019Z,21.67
2023-02-01T09:48:23.900Z,19.38
2023-02-01T09:50:56.419Z,16.25
2023-02-01T09:53:43.793Z,18.02
2023-02-01T09:56:15.520Z,10.88
2023-02-01T09:58:43.332Z,11.20
2023-02-01T10:01:22.678Z,15.35
2023-02-01T10:03:50.514Z,13.23
2023-02-01T10:06:49.631Z,21.70
2023-02-01T10:09:45.667Z,13.73
2023-02-01T10:12:34.598Z,17.17
2023-02-01T10:15:07.957Z,22.20
2023-02-01T10:17:50.386Z,26.42
2023-02-01T10:20:29.013Z,12.25
2023-02-01T10:23:23.202Z,13.07
2023-02-01T10:25:55.848Z,19.85
2023-02-01T10:28:25.041Z,13.60
2023-02-01T10:30:57.768Z,18.17
2023-02-01T10:33:33.652Z,13.48
2023-02-01T10:36:17.959Z,18.40
2023-02-01T10:38:45.218Z,17.53
2023-02-01T10:41:18.118Z,13.18
2023-02-01T10:43:46.277Z,18.85
2023-02-01T10:46:13.189Z,20.83
2023-02-01T10:48:41.866Z,16.50
2023-02-01T10:51:15.987Z,12.77
2023-02-01T10:53:53.915Z,11.43
2023-02-01T10:56:28.473Z,22.75
2023-02-01T10:59:16.469Z,21.15
2023-02-01T11:01:48.158Z,15.18
2023-02-01T11:04:22.162Z,18.67
2023-02-01T11:07:10.503Z,15.97
2023-02-01T11:09:41.001Z,11.70
2023-02-01T11:12:27.419Z,14.70
2023-02-01T11:15:18.662Z,12.48
2023-02-01T11:17:47.735Z,20.27
2023-02-01T11:20:20.863Z,20.13
2023-02-01T11:22:49.852Z,13.35
2023-02-01T11:25:18.558Z,14.82
2023-02-01T11:27:54.520Z,11.75
2023-02-01T11:30:37.372Z,11.73
2023-02-01T11:33:06.864Z,10.48
2023-02-01T11:35:38.541Z,15.48
2023-02-01T11:38:14.009Z,15.50
2023-02-01T11:40:40.717Z,13.55
2023-02-01T11:43:18.829Z,15.68
2023-02-01T11:45:59.405Z,11.50
2023-02-01T11:48:31.655Z,7.65
2023-02-01T11:51:24.182Z,10.55
2023-02-01T11:53:56.701Z,11.70
2023-02-01T11:56:23.396Z,14.07
2023-02-01T11:59:03.031Z,13.48
2023-02-01T12:02:00.957Z,14.70
2023-02-01T12:04:44.998Z,15.10
2023-02-01T12:07:11.628Z,12.95
2023-02-01T12:09:38.384Z,13.98
2023-02-01T12:12:12.390Z,13.60
2023-02-01T12:15:16.614Z,6.80
2023-02-01T12:18:01.966Z,14.70
2023-02-01T12:21:10.007Z,12.30
2023-02-01T12:23:45.664Z,17.02
2023-02-01T12:26:23.599Z,13.88
2023-02-01T12:29:18.938Z,15.38
2023-02-01T12:32:05.943Z,18.80
2023-02-01T12:34:39.313Z,11.35
2023-02-01T12:37:45.296Z,17.63
2023-02-01T12:40:29.872Z,14.40
2023-02-01T12:43:03.912Z,15.48
2023-02-01T12:45:59.997Z,13.02
2023-02-01T12:48:32.653Z,12.02
2023-02-01T12:51:14.586Z,11.73
2023-02-01T12:54:19.547Z,18.88
2023-02-01T12:56:50.631Z,13.38
2023-02-01T12:59:27.556Z,11.75
2023-02-01T13:02:05.959Z,12.40
2023-02-01T13:05:18.839Z,15.68
2023-02-01T13:08:04.699Z,11.82
2023-02-01T13:10:47.879Z,15.63
2023-02-01T13:13:40.117Z,17.25
2023-02-01T13:16:30.080Z,21.35
2023-02-01T13:19:07.670Z,15.55
2023-02-01T13:21:40.385Z,12.80
2023-02-01T13:24:24.947Z,10.50
2023-02-01T13:26:55.139Z,21.42
2023-02-01T13:29:23.939Z,22.08
2023-02-01T13:32:18.282Z,12.10
2023-02-01T13:35:17.280Z,13.25
2023-02-01T13:37:55.931Z,17.67
2023-02-01T13:40:39.542Z,16.50
2023-02-01T13:43:16.589Z,11.98
2023-02-01T13:45:50.968Z,16.83
2023-02-01T13:48:41.037Z,11.88
2023-02-01T13:51:08.233Z,20.95
2023-02-01T13:53:38.054Z,14.02
2023-02-01T13:56:21.336Z,9.48
2023-02-01T13:58:49.278Z,18.05
2023-02-01T14:01:22.214Z,15.32
2023-02-01T14:03:56.653Z,14.50
2023-02-01T14:06:30.940Z,14.05
2023-02-01T14:09:14.874Z,16.13
2023-02-01T14:11:45.369Z,16.73
2023-02-01T14:14:18.105Z,17.58
2023-02-01T14:17:05.635Z,14.05
2023-02-01T14:19:34.353Z,20.55
2023-02-01T14:22:22.291Z,18.10
2023-02-01T14:24:56.184Z,19.38
2023-02-01T14:27:25.853Z,13.73
2023-02-01T14:29:59.175Z,16.02
2023-02-01T14:32:31.919Z,8.73
2023-02-01T14:35:01.627Z,14.85
2023-02-01T14:37:31.611Z,15.55
2023-02-01T14:40:15.184Z,19.48
2023-02-01T14:42:46.943Z,15.95
2023-02-01T14:45:20.591Z,14.32
2023-02-01T14:47:48.751Z,14.85
2023-02-01T14:50:31.749Z,16.52
2023-02-01T14:53:11.054Z,10.27
2023-02-01T14:55:59.768Z,17.77
2023-02-01T14:58:35.644Z,19.40
2023-02-01T15:01:15.071Z,16.70
2023-02-01T15:04:07.878Z,18.40
2023-02-01T15:06:41.657Z,13.32
2023-02-01T15:09:17.205Z,17.38
2023-02-01T15:11:58.930Z,10.82
2023-02-01T15:14:26.852Z,14.52
2023-02-01T15:16:56.252Z,14.40
2023-02-01T15:19:25.285Z,15.80
2023-02-01T15:21:54.867Z,10.40
2023-02-01T15:24:30.199Z,15.07
2023-02-01T15:27:02.887Z,12.48
2023-02-01T15:29:33.330Z,15.20
2023-02-01T15:32:01.166Z,14.18
2023-02-01T15:34:48.004Z,14.27
2023-02-01T15:37:17.136Z,11.40
2023-02-01T15:40:06.919Z,10.43
2023-02-01T15:42:33.639Z,16.13
2023-02-01T15:45:00.414Z,18.40
2023-02-01T15:47:29.775Z,11.98
2023-02-01T15:49:58.896Z,18.77
2023-02-01T15:52:38.083Z,14.77
2023-02-01T15:55:19.033Z,12.13
2023-02-01T15:57:47.131Z,12.35
2023-02-01T16:00:26.125Z,16.63
2023-02-01T16:02:56.416Z,10.50
2023-02-01T16:05:44.229Z,16.27
2023-02-01T16:08:17.561Z,14.43
2023-02-01T16:10:46.730Z,8.05
2023-02-01T16:13:15.069Z,17.17
2023-02-01T16:15:41.801Z,18.92
2023-02-01T16:18:09.309Z,15.77
2023-02-01T16:20:37.799Z,14.52
2023-02-01T16:23:05.212Z,13.10
2023-02-01T16:25:32.540Z,14.95
2023-02-01T16:27:59.562Z,19.77
2023-02-01T16:30:26.265Z,13.35
2023-02-01T16:32:56.029Z,12.55
2023-02-01T16:35:31.466Z,9.63
2023-02-01T16:37:59.451Z,9.93
2023-02-01T16:40:26.203Z,17.75
2023-02-01T16:42:56.175Z,16.23
2023-02-01T16:45:23.872Z,13.20
2023-02-01T16:47:53.686Z,8.73
2023-02-01T16:50:24.407Z,9.98
2023-02-01T16:52:52.349Z,17.20
2023-02-01T16:55:22.698Z,13.25
2023-02-01T16:57:49.767Z,12.48
2023-02-01T17:00:24.616Z,14.77
2023-02-01T17:02:52.611Z,15.82
2023-02-01T17:05:19.327Z,17.48
2023-02-01T17:07:46.551Z,16.10
2023-02-01T17:10:34.664Z,15.75
2023-02-01T17:13:02.757Z,13.38
2023-02-01T17:15:35.452Z,16.00
2023-02-01T17:18:02.879Z,16.83
2023-02-01T17:20:33.143Z,10.15
2023-02-01T17:23:00.500Z,17.90
2023-02-01T17:25:28.807Z,12.88
2023-02-01T17:27:55.977Z,14.02
2023-02-01T17:30:23.245Z,17.15
2023-02-01T17:32:50.359Z,12.05
2023-02-01T17:35:23.172Z,14.10
2023-02-01T17:37:51.013Z,11.25
2023-02-01T17:40:18.170Z,12.70
2023-02-01T17:42:45.319Z,18.77
2023-02-01T17:45:27.465Z,15.48
2023-02-01T17:47:54.167Z,15.93
2023-02-01T17:50:20.844Z,11.98
2023-02-01T17:52:47.563Z,14.90
2023-02-01T17:55:19.710Z,14.35
2023-02-01T17:57:48.088Z,11.98
2023-02-01T18:00:15.784Z,13.27
2023-02-01T18:02:43.002Z,9.60
2023-02-01T18:05:18.679Z,16.23
2023-02-01T18:07:45.423Z,16.17
2023-02-01T18:10:12.397Z,13.57
2023-02-01T18:12:39.765Z,16.25
2023-02-01T18:15:26.228Z,11.32
2023-02-01T18:17:53.111Z,16.48
2023-02-01T18:20:22.698Z,15.05
2023-02-01T18:22:50.385Z,14.63
2023-02-01T18:25:18.284Z,12.40
2023-02-01T18:27:45.151Z,13.52
2023-02-01T18:30:12.811Z,16.92
2023-02-01T18:32:40.317Z,17.98
2023-02-01T18:35:33.474Z,12.20
2023-02-01T18:38:00.220Z,21.65
2023-02-01T18:40:34.142Z,14.68
2023-02-01T18:43:01.037Z,17.50
2023-02-01T18:45:39.430Z,18.15
2023-02-01T18:48:07.729Z,16.88
2023-02-01T18:50:36.961Z,18.63
2023-02-01T18:53:05.537Z,12.70
2023-02-01T18:55:35.097Z,17.63
2023-02-01T18:58:03.865Z,12.68
2023-02-01T19:00:30.665Z,13.05
2023-02-01T19:02:57.488Z,14.48
2023-02-01T19:05:24.562Z,16.85
2023-02-01T19:07:51.449Z,15.35
2023-02-01T19:10:22.165Z,16.02
2023-02-01T19:12:50.558Z,10.15
2023-02-01T19:15:17.695Z,15.02
2023-02-01T19:17:50.205Z,14.65
2023-02-01T19:20:19.629Z,19.52
2023-02-01T19:22:47.310Z,6.93
2023-02-01T19:25:17.351Z,19.58
2023-02-01T19:27:44.075Z,13.05
2023-02-01T19:30:12.845Z,12.55
2023-02-01T19:32:40.359Z,10.95
2023-02-01T19:35:08.417Z,10.18
2023-02-01T19:37:35.341Z,10.13
2023-02-01T19:40:02.395Z,18.00
2023-02-01T19:42:29.991Z,14.50
2023-02-01T19:44:56.717Z,10.13
2023-02-01T19:47:23.407Z,17.90
2023-02-01T19:49:50.073Z,14.82
2023-02-01T19:52:17.530Z,18.95
2023-02-01T19:54:44.248Z,17.45
2023-02-01T19:57:10.947Z,15.32
2023-02-01T19:59:37.664Z,17.17
2023-02-01T20:02:03.518Z,14.15
2023-02-01T20:04:30.279Z,20.55
2023-02-01T20:06:57.192Z,23.45
2023-02-01T20:09:26.861Z,15.15
2023-02-01T20:11:54.162Z,17.15
2023-02-01T20:14:22.100Z,16.63
2023-02-01T20:16:48.782Z,15.88
2023-02-01T20:19:16.267Z,14.48
2023-02-01T20:21:43.026Z,14.00
2023-02-01T20:24:13.439Z,15.65
2023-02-01T20:26:41.280Z,17.77
2023-02-01T20:29:08.462Z,17.40
2023-02-01T20:31:35.320Z,17.15
2023-02-01T20:34:03.570Z,19.38
2023-02-01T20:36:31.346Z,16.75
2023-02-01T20:38:58.571Z,16.25
2023-02-01T20:41:26.457Z,16.75
2023-02-01T20:43:53.438Z,15.93
2023-02-01T20:46:20.767Z,15.07
2023-02-01T20:48:49.347Z,19.00
2023-02-01T20:51:17.986Z,17.77
2023-02-01T20:53:47.586Z,16.80
2023-02-01T20:56:15.724Z,16.02
2023-02-01T20:58:43.258Z,13.55
2023-02-01T21:01:10.300Z,12.65
2023-02-01T21:03:37.139Z,10.25
2023-02-01T21:06:05.128Z,19.83
2023-02-01T21:08:32.604Z,17.15
2023-02-01T21:11:00.791Z,14.82
2023-02-01T21:13:30.375Z,13.80
2023-02-01T21:15:57.629Z,14.93
2023-02-01T21:18:24.789Z,15.15
2023-02-01T21:20:51.710Z,19.63
2023-02-01T21:23:18.734Z,16.95
2023-02-01T21:25:45.972Z,15.05
2023-02-01T21:28:13.409Z,21.73
2023-02-01T21:30:40.334Z,23.35
2023-02-01T21:33:07.848Z,22.35
2023-02-01T21:35:34.575Z,17.35
2023-02-01T21:38:01.266Z,27.73
2023-02-01T21:40:27.954Z,17.83
2023-02-01T21:42:54.972Z,13.40
2023-02-01T21:45:21.671Z,19.48
2023-02-01T21:47:49.630Z,16.98
2023-02-01T21:50:18.873Z,14.15
2023-02-01T21:52:46.604Z,18.85
2023-02-01T21:55:14.252Z,12.35
2023-02-01T21:57:41.495Z,13.88
2023-02-01T22:00:08.853Z,17.38
2023-02-01T22:02:36.062Z,16.63
2023-02-01T22:05:05.184Z,21.83
2023-02-01T22:07:33.301Z,11.80
2023-02-01T22:10:01.008Z,18.58
2023-02-01T22:12:27.796Z,18.58
2023-02-01T22:14:54.569Z,13.80
2023-02-01T22:17:21.383Z,15.05
2023-02-01T22:19:48.073Z,24.58
2023-02-01T22:22:14.774Z,20.02
2023-02-01T22:24:41.624Z,16.42
2023-02-01T22:27:14.115Z,19.63
2023-02-01T22:29:42.516Z,15.23
2023-02-01T22:32:09.761Z,18.55
2023-02-01T22:34:36.441Z,11.52
2023-02-01T22:37:03.435Z,11.05
2023-02-01T22:39:30.333Z,18.17
2023-02-01T22:41:57.089Z,16.15
2023-02-01T22:44:23.832Z,13.85
2023-02-01T22:46:50.694Z,11.13
2023-02-01T22:49:17.487Z,19.17
2023-02-01T22:51:44.248Z,14.52
2023-02-01T22:54:17.182Z,16.65
2023-02-01T22:56:43.944Z,15.20
2023-02-01T22:59:13.105Z,16.38
2023-02-01T23:01:40.381Z,13.77
2023-02-01T23:04:10.556Z,13.63
2023-02-01T23:06:37.236Z,11.15
2023-02-01T23:09:25.121Z,9.75
2023-02-01T23:11:52.923Z,13.63
2023-02-01T23:14:20.052Z,9.27
2023-02-01T23:16:48.977Z,16.17
2023-02-01T23:19:15.877Z,14.95
2023-02-01T23:21:42.786Z,13.55
2023-02-01T23:24:10.757Z,18.70
2023-02-01T23:26:37.979Z,9.48
2023-02-01T23:29:04.856Z,18.65
2023-02-01T23:31:33.856Z,17.90
2023-02-01T23:34:02.184Z,13.57
2023-02-01T23:36:29.793Z,17.65
2023-02-01T23:38:57.383Z,15.15
2023-02-01T23:41:24.464Z,12.05
2023-02-01T23:44:01.035Z,21.77
2023-02-01T23:46:39.377Z,18.02
2023-02-01T23:49:07.718Z,17.42
2023-02-01T23:51:34.776Z,17.05
2023-02-01T23:54:01.996Z,18.23
2023-02-01T23:56:34.122Z,19.52
2023-02-01T23:59:02.691Z,16.33
